sensor_id;sensor_type;location;lat;lon;timestamp;temperature;humidity
18268;DHT22;9260;49.998;19.880;2023-04-09T00:08:40;2.00;1.00
18268;DHT22;9260;49.998;19.880;2023-04-09T00:18:46;2.00;1.00
18268;DHT22;9260;49.998;19.880;2023-04-09T00:28:50;2.10;1.00
18268;DHT22;9260;49.998;19.880;2023-04-09T00:38:56;2.20;1.00
18268;DHT22;9260;49.998;19.880;2023-04-09T00:49:00;2.20;1.00
18268;DHT22;9260;49.998;19.880;2023-04-09T00:59:05;2.20;1.00
18268;DHT22;9260;49.998;19.880;2023-04-09T01:09:13;2.20;1.00
18268;DHT22;9260;49.998;19.880;2023-04-09T01:19:36;2.00;1.00
18268;DHT22;9260;49.998;19.880;2023-04-09T01:29:47;1.90;1.00
18268;DHT22;9260;49.998;19.880;2023-04-09T01:39:53;1.70;1.00
18268;DHT22;9260;49.998;19.880;2023-04-09T01:49:59;1.60;1.00
18268;DHT22;9260;49.998;19.880;2023-04-09T02:00:05;1.60;1.00
18268;DHT22;9260;49.998;19.880;2023-04-09T02:10:19;1.50;1.00
18268;DHT22;9260;49.998;19.880;2023-04-09T02:20:25;1.40;1.00
18268;DHT22;9260;49.998;19.880;2023-04-09T02:30:30;1.40;1.00
18268;DHT22;9260;49.998;19.880;2023-04-09T02:40:34;1.50;1.00
18268;DHT22;9260;49.998;19.880;2023-04-09T02:50:39;1.50;1.00
18268;DHT22;9260;49.998;19.880;2023-04-09T03:00:43;1.60;1.00
18268;DHT22;9260;49.998;19.880;2023-04-09T03:10:48;1.60;1.00
18268;DHT22;9260;49.998;19.880;2023-04-09T03:20:52;1.60;1.00
18268;DHT22;9260;49.998;19.880;2023-04-09T03:31:01;1.70;1.00
18268;DHT22;9260;49.998;19.880;2023-04-09T03:41:10;1.80;1.00
18268;DHT22;9260;49.998;19.880;2023-04-09T03:51:15;1.80;1.00
18268;DHT22;9260;49.998;19.880;2023-04-09T04:01:25;1.80;1.00
18268;DHT22;9260;49.998;19.880;2023-04-09T04:11:34;1.80;1.00
18268;DHT22;9260;49.998;19.880;2023-04-09T04:21:38;1.80;1.00
18268;DHT22;9260;49.998;19.880;2023-04-09T04:31:43;2.00;1.00
18268;DHT22;9260;49.998;19.880;2023-04-09T04:41:50;2.20;1.00
18268;DHT22;9260;49.998;19.880;2023-04-09T04:52:00;2.40;1.00
18268;DHT22;9260;49.998;19.880;2023-04-09T05:02:06;2.70;1.00
18268;DHT22;9260;49.998;19.880;2023-04-09T05:12:22;2.70;1.00
18268;DHT22;9260;49.998;19.880;2023-04-09T05:22:28;3.00;1.00
18268;DHT22;9260;49.998;19.880;2023-04-09T05:32:33;3.30;1.00
18268;DHT22;9260;49.998;19.880;2023-04-09T05:42:38;3.60;1.00
18268;DHT22;9260;49.998;19.880;2023-04-09T05:52:53;3.90;1.00
18268;DHT22;9260;49.998;19.880;2023-04-09T06:03:04;4.20;1.00
18268;DHT22;9260;49.998;19.880;2023-04-09T06:13:10;4.70;1.00
18268;DHT22;9260;49.998;19.880;2023-04-09T06:23:15;5.20;1.00
18268;DHT22;9260;49.998;19.880;2023-04-09T06:33:21;6.30;1.00
18268;DHT22;9260;49.998;19.880;2023-04-09T06:43:25;7.00;1.00
18268;DHT22;9260;49.998;19.880;2023-04-09T06:53:30;7.60;1.00
18268;DHT22;9260;49.998;19.880;2023-04-09T07:03:34;8.40;1.00
18268;DHT22;9260;49.998;19.880;2023-04-09T07:13:39;9.30;1.00
18268;DHT22;9260;49.998;19.880;2023-04-09T07:23:43;10.10;1.00
18268;DHT22;9260;49.998;19.880;2023-04-09T07:33:49;11.50;1.00
18268;DHT22;9260;49.998;19.880;2023-04-09T07:43:53;16.00;1.00
18268;DHT22;9260;49.998;19.880;2023-04-09T07:53:59;18.20;1.00
18268;DHT22;9260;49.998;19.880;2023-04-09T08:04:03;20.90;1.00
18268;DHT22;9260;49.998;19.880;2023-04-09T08:14:08;20.00;1.00
18268;DHT22;9260;49.998;19.880;2023-04-09T08:24:14;20.90;1.00
18268;DHT22;9260;49.998;19.880;2023-04-09T08:34:19;23.70;1.00
18268;DHT22;9260;49.998;19.880;2023-04-09T08:44:25;24.70;1.00
18268;DHT22;9260;49.998;19.880;2023-04-09T08:54:30;20.40;1.00
18268;DHT22;9260;49.998;19.880;2023-04-09T09:04:43;22.40;1.00
18268;DHT22;9260;49.998;19.880;2023-04-09T09:14:49;24.50;1.00
18268;DHT22;9260;49.998;19.880;2023-04-09T09:24:53;29.40;1.00
18268;DHT22;9260;49.998;19.880;2023-04-09T09:35:01;23.30;1.00
18268;DHT22;9260;49.998;19.880;2023-04-09T09:45:16;20.90;1.00
18268;DHT22;9260;49.998;19.880;2023-04-09T09:55:25;19.30;1.00
18268;DHT22;9260;49.998;19.880;2023-04-09T10:05:30;17.10;1.00
18268;DHT22;9260;49.998;19.880;2023-04-09T10:15:38;16.10;1.00
18268;DHT22;9260;49.998;19.880;2023-04-09T10:25:44;26.10;1.00
18268;DHT22;9260;49.998;19.880;2023-04-09T10:35:50;25.20;1.00
18268;DHT22;9260;49.998;19.880;2023-04-09T10:45:56;19.30;1.00
18268;DHT22;9260;49.998;19.880;2023-04-09T10:56:13;16.50;1.00
18268;DHT22;9260;49.998;19.880;2023-04-09T11:06:19;15.00;1.00
18268;DHT22;9260;49.998;19.880;2023-04-09T11:16:28;13.70;1.00
18268;DHT22;9260;49.998;19.880;2023-04-09T11:26:35;12.50;1.00
18268;DHT22;9260;49.998;19.880;2023-04-09T11:36:40;12.20;1.00
18268;DHT22;9260;49.998;19.880;2023-04-09T11:46:44;12.50;1.00
18268;DHT22;9260;49.998;19.880;2023-04-09T11:56:50;13.40;1.00
18268;DHT22;9260;49.998;19.880;2023-04-09T12:06:57;14.20;1.00
18268;DHT22;9260;49.998;19.880;2023-04-09T12:17:02;14.60;1.00
18268;DHT22;9260;49.998;19.880;2023-04-09T12:27:05;14.40;1.00
18268;DHT22;9260;49.998;19.880;2023-04-09T12:37:10;14.00;1.00
18268;DHT22;9260;49.998;19.880;2023-04-09T12:47:14;13.90;1.00
18268;DHT22;9260;49.998;19.880;2023-04-09T12:57:19;14.40;1.00
18268;DHT22;9260;49.998;19.880;2023-04-09T13:07:23;14.20;1.00
18268;DHT22;9260;49.998;19.880;2023-04-09T13:17:31;14.20;1.00
18268;DHT22;9260;49.998;19.880;2023-04-09T13:27:35;14.20;1.00
18268;DHT22;9260;49.998;19.880;2023-04-09T13:37:41;13.70;1.00
18268;DHT22;9260;49.998;19.880;2023-04-09T13:47:45;13.70;1.00
18268;DHT22;9260;49.998;19.880;2023-04-09T13:57:50;14.40;1.00
18268;DHT22;9260;49.998;19.880;2023-04-09T14:07:54;15.90;1.00
18268;DHT22;9260;49.998;19.880;2023-04-09T14:17:59;16.40;1.00
18268;DHT22;9260;49.998;19.880;2023-04-09T14:28:03;16.30;1.00
18268;DHT22;9260;49.998;19.880;2023-04-09T14:38:08;16.00;1.00
18268;DHT22;9260;49.998;19.880;2023-04-09T14:48:12;15.50;1.00
18268;DHT22;9260;49.998;19.880;2023-04-09T14:58:17;15.20;1.00
18268;DHT22;9260;49.998;19.880;2023-04-09T15:08:21;14.90;1.00
18268;DHT22;9260;49.998;19.880;2023-04-09T15:18:26;14.50;1.00
18268;DHT22;9260;49.998;19.880;2023-04-09T15:28:29;14.10;1.00
18268;DHT22;9260;49.998;19.880;2023-04-09T15:38:34;13.80;1.00
18268;DHT22;9260;49.998;19.880;2023-04-09T15:48:38;13.50;1.00
18268;DHT22;9260;49.998;19.880;2023-04-09T15:58:44;13.10;1.00
18268;DHT22;9260;49.998;19.880;2023-04-09T16:08:48;12.40;1.00
18268;DHT22;9260;49.998;19.880;2023-04-09T16:18:53;11.80;1.00
18268;DHT22;9260;49.998;19.880;2023-04-09T16:28:58;11.40;1.00
18268;DHT22;9260;49.998;19.880;2023-04-09T16:39:06;11.00;1.00
18268;DHT22;9260;49.998;19.880;2023-04-09T16:49:10;10.70;1.00
18268;DHT22;9260;49.998;19.880;2023-04-09T16:59:15;10.30;1.00
18268;DHT22;9260;49.998;19.880;2023-04-09T17:09:22;9.90;1.00
18268;DHT22;9260;49.998;19.880;2023-04-09T17:19:27;9.50;1.00
18268;DHT22;9260;49.998;19.880;2023-04-09T17:29:31;9.30;1.00
18268;DHT22;9260;49.998;19.880;2023-04-09T17:39:36;9.00;1.00
18268;DHT22;9260;49.998;19.880;2023-04-09T17:49:40;8.60;1.00
18268;DHT22;9260;49.998;19.880;2023-04-09T17:59:45;8.30;1.00
18268;DHT22;9260;49.998;19.880;2023-04-09T18:09:49;7.90;1.00
18268;DHT22;9260;49.998;19.880;2023-04-09T18:19:55;7.60;1.00
18268;DHT22;9260;49.998;19.880;2023-04-09T18:29:59;7.40;1.00
18268;DHT22;9260;49.998;19.880;2023-04-09T18:40:06;7.10;1.00
18268;DHT22;9260;49.998;19.880;2023-04-09T18:50:13;6.90;1.00
18268;DHT22;9260;49.998;19.880;2023-04-09T19:00:20;6.70;1.00
18268;DHT22;9260;49.998;19.880;2023-04-09T19:10:24;6.50;1.00
18268;DHT22;9260;49.998;19.880;2023-04-09T19:20:29;6.30;1.00
18268;DHT22;9260;49.998;19.880;2023-04-09T19:30:35;6.20;1.00
18268;DHT22;9260;49.998;19.880;2023-04-09T19:40:40;6.00;1.00
18268;DHT22;9260;49.998;19.880;2023-04-09T19:50:44;5.90;1.00
18268;DHT22;9260;49.998;19.880;2023-04-09T20:00:50;5.80;1.00
18268;DHT22;9260;49.998;19.880;2023-04-09T20:10:54;5.80;1.00
18268;DHT22;9260;49.998;19.880;2023-04-09T20:20:59;5.70;1.00
18268;DHT22;9260;49.998;19.880;2023-04-09T20:31:03;5.50;1.00
18268;DHT22;9260;49.998;19.880;2023-04-09T20:41:10;5.30;1.00
18268;DHT22;9260;49.998;19.880;2023-04-09T20:51:14;5.20;1.00
18268;DHT22;9260;49.998;19.880;2023-04-09T21:01:20;5.10;1.00
18268;DHT22;9260;49.998;19.880;2023-04-09T21:11:24;5.00;1.00
18268;DHT22;9260;49.998;19.880;2023-04-09T21:21:29;4.90;1.00
18268;DHT22;9260;49.998;19.880;2023-04-09T21:31:33;4.70;1.00
18268;DHT22;9260;49.998;19.880;2023-04-09T21:41:39;4.30;1.00
18268;DHT22;9260;49.998;19.880;2023-04-09T21:51:44;4.00;1.00
18268;DHT22;9260;49.998;19.880;2023-04-09T22:01:50;4.10;1.00
18268;DHT22;9260;49.998;19.880;2023-04-09T22:11:54;4.20;1.00
18268;DHT22;9260;49.998;19.880;2023-04-09T22:21:59;4.20;1.00
18268;DHT22;9260;49.998;19.880;2023-04-09T22:32:03;4.30;1.00
18268;DHT22;9260;49.998;19.880;2023-04-09T22:42:09;4.20;1.00
18268;DHT22;9260;49.998;19.880;2023-04-09T22:52:12;3.90;1.00
18268;DHT22;9260;49.998;19.880;2023-04-09T23:02:18;3.60;1.00
18268;DHT22;9260;49.998;19.880;2023-04-09T23:12:22;3.30;1.00
18268;DHT22;9260;49.998;19.880;2023-04-09T23:22:27;3.00;1.00
18268;DHT22;9260;49.998;19.880;2023-04-09T23:32:30;2.80;1.00
18268;DHT22;9260;49.998;19.880;2023-04-09T23:42:36;2.70;1.00
18268;DHT22;9260;49.998;19.880;2023-04-09T23:52:45;2.40;1.00
